createdAt,value
2022-11-05T00:00:17.916Z,86.42
2022-11-05T00:03:05.535Z,82.83
2022-11-05T00:05:52.143Z,85.84
2022-11-05T00:08:43.953Z,89.36
2022-11-05T00:11:17.937Z,90.98
2022-11-05T00:14:04.686Z,93.65
2022-11-05T00:16:45.276Z,89.83
2022-11-05T00:19:16.835Z,89.17
2022-11-05T00:22:02.920Z,89.04
2022-11-05T00:24:49.425Z,88.85
2022-11-05T00:27:18.238Z,90.15
2022-11-05T00:29:47.078Z,87.23
2022-11-05T00:32:16.088Z,89.52
2022-11-05T00:34:46.307Z,89.76
2022-11-05T00:37:15.132Z,88.88
2022-11-05T00:39:44.610Z,93.14
2022-11-05T00:42:30.647Z,91.09
2022-11-05T00:45:02.611Z,90.04
2022-11-05T00:47:51.132Z,90.17
2022-11-05T00:50:23.092Z,89.61
2022-11-05T00:52:58.151Z,88.62
2022-11-05T00:55:30.175Z,89.65
2022-11-05T00:57:59.337Z,90.46
2022-11-05T01:00:29.923Z,88.12
2022-11-05T01:03:00.059Z,87.78
2022-11-05T01:05:32.921Z,90.48
2022-11-05T01:08:02.218Z,92.57
2022-11-05T01:10:31.189Z,91.93
2022-11-05T01:13:00.208Z,94.07
2022-11-05T01:15:29.622Z,91.48
2022-11-05T01:17:58.703Z,89.69
2022-11-05T01:20:28.074Z,88.91
2022-11-05T01:22:58.983Z,88.70
2022-11-05T01:25:27.857Z,87.89
2022-11-05T01:27:56.840Z,89.70
2022-11-05T01:30:26.190Z,89.63
2022-11-05T01:32:55.057Z,92.04
2022-11-05T01:35:24.085Z,92.20
2022-11-05T01:37:53.037Z,91.41
2022-11-05T01:40:24.908Z,90.71
2022-11-05T01:42:53.824Z,93.42
2022-11-05T01:45:25.493Z,96.66
2022-11-05T01:48:03.277Z,96.01
2022-11-05T01:50:37.435Z,92.46
2022-11-05T01:53:16.970Z,90.83
2022-11-05T01:55:52.285Z,90.41
2022-11-05T01:58:26.064Z,93.16
2022-11-05T02:00:57.925Z,91.50
2022-11-05T02:03:27.432Z,91.50
2022-11-05T02:05:58.541Z,92.53
2022-11-05T02:08:42.913Z,92.74
2022-11-05T02:11:15.457Z,91.67
2022-11-05T02:13:44.609Z,90.76
2022-11-05T02:16:21.128Z,90.96
2022-11-05T02:19:00.180Z,89.69
2022-11-05T02:22:05.236Z,85.84
2022-11-05T02:25:09.561Z,88.34
2022-11-05T02:28:07.004Z,88.34
2022-11-05T02:30:48.822Z,89.26
2022-11-05T02:33:32.442Z,85.79
2022-11-05T02:36:19.463Z,85.68
2022-11-05T02:38:59.728Z,86.94
2022-11-05T02:41:36.807Z,90.18
2022-11-05T02:44:16.203Z,88.64
2022-11-05T02:46:55.260Z,94.37
2022-11-05T02:49:40.360Z,91.74
2022-11-05T02:52:16.740Z,88.34
2022-11-05T02:54:51.232Z,86.50
2022-11-05T02:57:22.076Z,86.29
2022-11-05T02:59:50.984Z,85.92
2022-11-05T03:02:21.348Z,86.23
2022-11-05T03:04:50.304Z,86.96
2022-11-05T03:07:43.481Z,85.98
2022-11-05T03:10:40.503Z,86.32
2022-11-05T03:13:18.108Z,92.16
2022-11-05T03:15:54.848Z,91.91
2022-11-05T03:18:32.558Z,95.76
2022-11-05T03:21:06.807Z,90.90
2022-11-05T03:23:42.944Z,88.38
2022-11-05T03:26:17.642Z,89.47
2022-11-05T03:28:51.812Z,90.89
2022-11-05T03:31:23.666Z,94.15
2022-11-05T03:33:56.711Z,90.95
2022-11-05T03:36:30.618Z,87.70
2022-11-05T03:39:04.231Z,88.85
2022-11-05T03:41:35.059Z,90.42
2022-11-05T03:44:08.280Z,87.47
2022-11-05T03:46:42.892Z,85.74
2022-11-05T03:49:20.464Z,88.51
2022-11-05T03:51:54.672Z,91.47
2022-11-05T03:54:24.062Z,90.13
2022-11-05T03:57:02.285Z,89.70
2022-11-05T03:59:33.375Z,89.40
2022-11-05T04:02:04.974Z,90.37
2022-11-05T04:04:35.414Z,89.63
2022-11-05T04:07:22.041Z,89.18
2022-11-05T04:10:08.601Z,87.49
2022-11-05T04:12:54.627Z,87.06
2022-11-05T04:15:23.539Z,86.24
2022-11-05T04:17:51.504Z,87.10
2022-11-05T04:20:39.190Z,85.96
2022-11-05T04:23:25.796Z,83.64
2022-11-05T04:25:54.615Z,82.33
2022-11-05T04:28:43.454Z,82.92
2022-11-05T04:31:11.288Z,85.52
2022-11-05T04:33:41.061Z,84.98
2022-11-05T04:36:11.409Z,87.39
2022-11-05T04:38:40.202Z,87.13
2022-11-05T04:41:16.158Z,87.08
2022-11-05T04:43:45.654Z,89.15
2022-11-05T04:46:14.470Z,92.11
2022-11-05T04:48:43.230Z,91.37
2022-11-05T04:51:13.446Z,92.22
2022-11-05T04:53:42.309Z,91.40
2022-11-05T04:56:12.494Z,90.63
2022-11-05T04:58:41.406Z,92.47
2022-11-05T05:01:14.253Z,96.72
2022-11-05T05:03:43.397Z,100.00
2022-11-05T05:06:13.697Z,88.41
2022-11-05T05:08:42.630Z,96.35
2022-11-05T05:11:13.640Z,88.62
2022-11-05T05:13:42.461Z,84.92
2022-11-05T05:16:20.757Z,87.61
2022-11-05T05:18:50.540Z,86.65
2022-11-05T05:21:39.703Z,86.55
2022-11-05T05:24:10.629Z,84.80
2022-11-05T05:26:42.358Z,85.07
2022-11-05T05:29:12.833Z,85.29
2022-11-05T05:31:41.737Z,84.14
2022-11-05T05:34:12.768Z,90.31
2022-11-05T05:36:43.019Z,86.09
2022-11-05T05:39:11.935Z,84.00
2022-11-05T05:41:40.919Z,85.51
2022-11-05T05:44:09.895Z,85.75
2022-11-05T05:46:38.845Z,84.49
2022-11-05T05:49:12.485Z,84.94
2022-11-05T05:51:43.003Z,92.56
2022-11-05T05:54:13.096Z,91.80
2022-11-05T05:56:44.134Z,97.01
2022-11-05T05:59:13.044Z,90.45
2022-11-05T06:01:42.442Z,90.03
2022-11-05T06:04:11.557Z,89.48
2022-11-05T06:06:40.368Z,85.20
2022-11-05T06:09:10.593Z,83.85
2022-11-05T06:11:39.403Z,83.71
2022-11-05T06:14:11.183Z,83.00
2022-11-05T06:16:40.091Z,82.34
2022-11-05T06:19:09.401Z,80.80
2022-11-05T06:21:38.272Z,77.76
2022-11-05T06:24:07.919Z,78.35
2022-11-05T06:26:42.731Z,78.66
2022-11-05T06:29:11.607Z,77.90
2022-11-05T06:31:40.437Z,80.79
2022-11-05T06:34:09.299Z,77.64
2022-11-05T06:36:38.080Z,78.92
2022-11-05T06:39:10.673Z,76.72
2022-11-05T06:44:29.817Z,76.89
2022-11-05T06:46:58.707Z,80.45
2022-11-05T06:49:27.705Z,72.99
2022-11-05T06:51:56.560Z,70.21
2022-11-05T06:54:25.433Z,71.94
2022-11-05T06:56:56.220Z,70.43
2022-11-05T06:59:25.052Z,67.83
2022-11-05T07:01:54.218Z,68.71
2022-11-05T07:04:23.098Z,72.21
2022-11-05T07:06:51.974Z,73.72
2022-11-05T07:09:20.875Z,76.21
2022-11-05T07:11:49.716Z,76.93
2022-11-05T07:14:19.937Z,75.56
2022-11-05T07:16:48.889Z,75.97
2022-11-05T07:19:17.752Z,72.02
2022-11-05T07:21:48.531Z,70.54
2022-11-05T07:24:17.480Z,72.43
2022-11-05T07:26:46.308Z,68.22
2022-11-05T07:29:15.115Z,66.60
2022-11-05T07:31:47.038Z,64.65
2022-11-05T07:34:15.862Z,65.42
2022-11-05T07:36:44.704Z,64.17
2022-11-05T07:39:13.535Z,64.51
2022-11-05T07:41:42.464Z,71.49
2022-11-05T07:44:11.762Z,65.30
2022-11-05T07:46:40.699Z,60.51
2022-11-05T07:49:11.187Z,59.92
2022-11-05T07:51:40.036Z,64.97
2022-11-05T07:54:08.855Z,65.49
2022-11-05T07:56:37.785Z,68.00
2022-11-05T07:59:06.869Z,67.75
2022-11-05T08:01:35.832Z,68.56
2022-11-05T08:04:05.067Z,68.55
2022-11-05T08:06:35.300Z,67.69
2022-11-05T08:09:04.263Z,67.17
2022-11-05T08:11:35.144Z,67.55
2022-11-05T08:14:04.523Z,65.93
2022-11-05T08:16:33.368Z,60.65
2022-11-05T08:19:02.160Z,64.25
2022-11-05T08:21:30.988Z,59.91
2022-11-05T08:24:01.566Z,58.81
2022-11-05T08:26:30.465Z,54.35
2022-11-05T08:29:00.499Z,50.09
2022-11-05T08:31:31.142Z,52.31
2022-11-05T08:34:02.635Z,56.26
2022-11-05T08:36:31.728Z,53.31
2022-11-05T08:39:02.030Z,56.58
2022-11-05T08:41:30.856Z,57.11
2022-11-05T08:43:59.763Z,58.62
2022-11-05T08:46:28.577Z,57.63
2022-11-05T08:48:57.844Z,56.80
2022-11-05T08:51:26.680Z,57.46
2022-11-05T08:53:55.524Z,55.58
2022-11-05T08:56:25.780Z,53.22
2022-11-05T08:58:54.816Z,52.50
2022-11-05T09:01:23.747Z,49.32
2022-11-05T09:03:52.954Z,49.71
2022-11-05T09:06:21.977Z,46.53
2022-11-05T09:08:50.747Z,45.89
2022-11-05T09:11:20.160Z,44.03
2022-11-05T09:13:50.457Z,42.09
2022-11-05T09:16:24.279Z,44.09
2022-11-05T09:18:53.812Z,43.08
2022-11-05T09:21:22.690Z,40.99
2022-11-05T09:23:51.504Z,37.58
2022-11-05T09:26:20.415Z,35.22
2022-11-05T09:28:50.624Z,34.63
2022-11-05T09:31:19.592Z,34.31
2022-11-05T09:33:48.685Z,31.88
2022-11-05T09:36:17.556Z,30.95
2022-11-05T09:38:46.367Z,29.76
2022-11-05T09:41:21.753Z,31.83
2022-11-05T09:43:55.393Z,31.74
2022-11-05T09:46:26.830Z,30.61
2022-11-05T09:49:02.295Z,29.72
2022-11-05T09:51:32.337Z,30.92
2022-11-05T09:54:05.610Z,32.07
2022-11-05T09:56:37.254Z,32.53
2022-11-05T09:59:14.806Z,33.36
2022-11-05T10:01:44.878Z,32.02
2022-11-05T10:04:18.099Z,31.15
2022-11-05T10:06:50.392Z,27.73
2022-11-05T10:09:26.276Z,26.10
2022-11-05T10:11:59.148Z,25.57
2022-11-05T10:14:33.169Z,24.11
2022-11-05T10:17:09.289Z,26.74
2022-11-05T10:19:44.560Z,27.24
2022-11-05T10:22:16.258Z,25.54
2022-11-05T10:24:47.229Z,26.48
2022-11-05T10:27:19.639Z,25.31
2022-11-05T10:29:50.545Z,23.41
2022-11-05T10:32:28.677Z,21.74
2022-11-05T10:35:00.330Z,21.92
2022-11-05T10:37:30.765Z,22.00
2022-11-05T10:40:00.135Z,21.54
2022-11-05T10:42:41.198Z,20.83
2022-11-05T10:45:21.382Z,20.67
2022-11-05T10:48:03.946Z,19.99
2022-11-05T10:50:33.482Z,20.07
2022-11-05T10:53:06.744Z,19.58
2022-11-05T10:55:37.567Z,19.46
2022-11-05T10:58:18.351Z,20.00
2022-11-05T11:01:03.977Z,21.10
2022-11-05T11:03:37.462Z,20.22
2022-11-05T11:06:20.858Z,19.67
2022-11-05T11:08:51.348Z,20.44
2022-11-05T11:11:30.272Z,21.16
2022-11-05T11:14:07.800Z,20.49
2022-11-05T11:16:40.338Z,20.24
2022-11-05T11:19:26.223Z,20.76
2022-11-05T11:22:15.070Z,21.66
2022-11-05T11:24:45.457Z,21.17
2022-11-05T11:27:17.696Z,21.10
2022-11-05T11:29:50.991Z,20.07
2022-11-05T11:32:23.141Z,20.91
2022-11-05T11:34:55.077Z,19.68
2022-11-05T11:37:27.851Z,21.21
2022-11-05T11:40:01.224Z,21.63
2022-11-05T11:42:34.044Z,21.54
2022-11-05T11:45:07.070Z,21.55
2022-11-05T11:47:43.710Z,21.69
2022-11-05T11:50:35.384Z,20.20
2022-11-05T11:53:29.782Z,19.84
2022-11-05T11:56:04.867Z,21.03
2022-11-05T11:58:40.767Z,21.93
2022-11-05T12:01:43.335Z,22.23
2022-11-05T12:04:29.232Z,22.22
2022-11-05T12:07:09.699Z,22.59
2022-11-05T12:10:02.024Z,22.78
2022-11-05T12:12:42.911Z,23.50
2022-11-05T12:15:28.891Z,22.78
2022-11-05T12:18:02.979Z,24.16
2022-11-05T12:20:58.509Z,23.86
2022-11-05T12:23:52.566Z,23.75
2022-11-05T12:26:30.397Z,24.56
2022-11-05T12:29:18.903Z,25.46
2022-11-05T12:31:57.157Z,26.07
2022-11-05T12:34:40.137Z,26.90
2022-11-05T12:37:24.040Z,27.06
2022-11-05T12:40:07.309Z,26.33
2022-11-05T12:42:47.903Z,27.31
2022-11-05T12:45:28.666Z,27.70
2022-11-05T12:48:13.519Z,27.13
2022-11-05T12:50:46.428Z,26.91
2022-11-05T12:53:42.514Z,26.81
2022-11-05T12:56:14.430Z,25.65
2022-11-05T12:58:45.998Z,25.68
2022-11-05T13:01:21.510Z,26.52
2022-11-05T13:03:56.053Z,27.26
2022-11-05T13:06:31.095Z,32.10
2022-11-05T13:09:04.367Z,37.58
2022-11-05T13:11:37.371Z,39.18
2022-11-05T13:14:12.767Z,40.69
2022-11-05T13:16:45.847Z,41.23
2022-11-05T13:19:20.298Z,40.95
2022-11-05T13:21:54.486Z,42.67
2022-11-05T13:24:27.501Z,43.55
2022-11-05T13:27:01.953Z,46.80
2022-11-05T13:29:35.702Z,46.37
2022-11-05T13:32:14.979Z,47.21
2022-11-05T13:34:44.639Z,48.73
2022-11-05T13:37:29.320Z,48.94
2022-11-05T13:40:03.344Z,50.70
2022-11-05T13:42:56.194Z,48.99
2022-11-05T13:46:05.813Z,48.60
2022-11-05T13:48:50.503Z,49.73
2022-11-05T13:51:46.428Z,50.84
2022-11-05T13:54:47.684Z,51.87
2022-11-05T13:57:34.697Z,53.61
2022-11-05T14:00:12.620Z,53.19
2022-11-05T14:02:44.675Z,53.97
2022-11-05T14:05:25.481Z,52.20
2022-11-05T14:07:56.194Z,52.67
2022-11-05T14:10:35.900Z,52.90
2022-11-05T14:13:18.277Z,55.21
2022-11-05T14:16:05.119Z,55.08
2022-11-05T14:18:56.309Z,54.48
2022-11-05T14:21:46.395Z,53.17
2022-11-05T14:24:39.963Z,51.96
2022-11-05T14:27:34.264Z,51.93
2022-11-05T14:30:44.054Z,51.53
2022-11-05T14:33:32.294Z,52.72
2022-11-05T14:36:36.310Z,52.48
2022-11-05T14:39:21.111Z,51.83
2022-11-05T14:41:59.066Z,52.21
2022-11-05T14:44:29.345Z,52.33
2022-11-05T14:47:03.396Z,52.38
2022-11-05T14:49:37.361Z,57.52
2022-11-05T14:52:09.187Z,58.16
2022-11-05T14:54:44.014Z,56.89
2022-11-05T14:57:15.606Z,55.62
2022-11-05T14:59:57.106Z,55.97
2022-11-05T15:02:32.623Z,55.31
2022-11-05T15:05:37.526Z,55.25
2022-11-05T15:08:32.987Z,54.45
2022-11-05T15:11:12.934Z,54.97
2022-11-05T15:13:52.012Z,52.84
2022-11-05T15:16:24.868Z,54.13
2022-11-05T15:18:57.479Z,54.25
2022-11-05T15:21:26.824Z,55.54
2022-11-05T15:23:57.871Z,58.15
2022-11-05T15:26:32.535Z,55.05
2022-11-05T15:29:03.239Z,54.27
2022-11-05T15:31:35.311Z,58.01
2022-11-05T15:34:19.532Z,59.37
2022-11-05T15:36:50.749Z,60.08
2022-11-05T15:39:32.202Z,57.94
2022-11-05T15:42:06.938Z,58.87
2022-11-05T15:44:40.730Z,56.98
2022-11-05T15:47:15.574Z,55.90
2022-11-05T15:49:48.832Z,56.96
2022-11-05T15:52:20.202Z,57.92
2022-11-05T15:55:08.516Z,58.54
2022-11-05T15:57:40.518Z,58.59
2022-11-05T16:00:18.891Z,59.14
2022-11-05T16:02:55.412Z,61.50
2022-11-05T16:05:27.500Z,60.55
2022-11-05T16:07:59.347Z,59.45
2022-11-05T16:10:31.138Z,60.13
2022-11-05T16:13:34.163Z,58.85
2022-11-05T16:16:06.028Z,59.23
2022-11-05T16:18:37.751Z,59.64
2022-11-05T16:21:09.865Z,60.52
2022-11-05T16:23:45.108Z,60.26
2022-11-05T16:27:01.087Z,61.94
2022-11-05T16:29:29.190Z,62.13
2022-11-05T16:32:00.000Z,62.11
2022-11-05T16:34:33.759Z,64.00
2022-11-05T16:37:05.219Z,62.39
2022-11-05T16:39:34.415Z,62.49
2022-11-05T16:42:13.965Z,63.66
2022-11-05T16:44:42.806Z,63.22
2022-11-05T16:47:11.639Z,62.76
2022-11-05T16:49:40.506Z,63.90
2022-11-05T16:52:12.400Z,64.15
2022-11-05T16:54:41.579Z,63.54
2022-11-05T16:57:20.923Z,62.11
2022-11-05T16:59:49.808Z,61.33
2022-11-05T17:02:18.784Z,60.41
2022-11-05T17:04:47.710Z,60.96
2022-11-05T17:07:17.980Z,59.74
2022-11-05T17:09:46.810Z,59.76
2022-11-05T17:12:16.272Z,59.57
2022-11-05T17:14:45.125Z,59.27
2022-11-05T17:17:13.976Z,60.38
2022-11-05T17:19:47.944Z,61.08
2022-11-05T17:22:18.238Z,60.71
2022-11-05T17:24:47.100Z,62.08
2022-11-05T17:27:16.285Z,62.19
2022-11-05T17:29:45.154Z,66.69
2022-11-05T17:32:14.255Z,67.75
2022-11-05T17:34:43.073Z,68.94
2022-11-05T17:37:11.861Z,67.94
2022-11-05T17:39:42.080Z,67.07
2022-11-05T17:42:10.921Z,67.03
2022-11-05T17:44:39.776Z,67.47
2022-11-05T17:47:08.561Z,67.75
2022-11-05T17:49:37.624Z,67.52
2022-11-05T17:52:06.749Z,68.79
2022-11-05T17:54:35.549Z,68.58
2022-11-05T17:57:06.369Z,67.68
2022-11-05T17:59:35.265Z,67.16
2022-11-05T18:02:04.333Z,66.73
2022-11-05T18:04:33.420Z,66.76
2022-11-05T18:07:02.226Z,68.46
2022-11-05T18:09:31.040Z,66.87
2022-11-05T18:12:00.140Z,66.54
2022-11-05T18:14:31.254Z,66.30
2022-11-05T18:17:00.465Z,65.92
2022-11-05T18:19:30.771Z,65.70
2022-11-05T18:21:59.683Z,65.36
2022-11-05T18:24:28.511Z,66.88
2022-11-05T18:26:57.295Z,64.85
2022-11-05T18:29:26.325Z,67.30
2022-11-05T18:31:56.577Z,66.59
2022-11-05T18:34:25.499Z,66.72
2022-11-05T18:36:56.608Z,67.13
2022-11-05T18:39:25.808Z,69.17
2022-11-05T18:41:54.637Z,69.72
2022-11-05T18:44:24.828Z,69.60
2022-11-05T18:46:58.510Z,69.50
2022-11-05T18:49:29.414Z,69.12
2022-11-05T18:52:04.444Z,69.91
2022-11-05T18:54:34.163Z,68.99
2022-11-05T18:57:02.980Z,68.76
2022-11-05T18:59:38.294Z,70.81
2022-11-05T19:02:09.490Z,73.08
2022-11-05T19:04:50.582Z,74.40
2022-11-05T19:07:29.777Z,74.88
2022-11-05T19:09:58.636Z,75.28
2022-11-05T19:12:27.504Z,75.92
2022-11-05T19:15:01.909Z,76.32
2022-11-05T19:17:33.277Z,75.19
2022-11-05T19:20:04.488Z,74.11
2022-11-05T19:22:33.458Z,73.03
2022-11-05T19:25:02.345Z,71.72
2022-11-05T19:27:31.206Z,70.46
2022-11-05T19:30:00.020Z,71.25
2022-11-05T19:32:29.714Z,70.86
2022-11-05T19:34:58.521Z,71.28
2022-11-05T19:37:28.853Z,71.41
2022-11-05T19:39:57.698Z,71.23
2022-11-05T19:42:27.504Z,71.00
2022-11-05T19:44:56.967Z,70.31
2022-11-05T19:47:29.604Z,70.14
2022-11-05T19:49:58.451Z,71.20
2022-11-05T19:52:28.768Z,70.67
2022-11-05T19:54:57.636Z,69.34
2022-11-05T19:57:26.403Z,67.47
2022-11-05T19:59:55.850Z,67.22
2022-11-05T20:02:24.936Z,66.90
2022-11-05T20:04:53.915Z,67.26
2022-11-05T20:07:22.741Z,66.83
2022-11-05T20:09:52.949Z,67.60
2022-11-05T20:12:21.877Z,69.42
2022-11-05T20:14:50.752Z,69.43
2022-11-05T20:17:20.403Z,70.29
2022-11-05T20:19:49.400Z,75.80
2022-11-05T20:22:18.268Z,71.87
2022-11-05T20:24:47.181Z,70.53
2022-11-05T20:27:17.543Z,70.06
2022-11-05T20:29:46.433Z,68.83
2022-11-05T20:32:15.239Z,68.46
2022-11-05T20:34:44.635Z,69.04
2022-11-05T20:37:13.477Z,67.94
2022-11-05T20:39:42.482Z,69.52
2022-11-05T20:42:11.268Z,67.93
2022-11-05T20:44:41.482Z,68.23
2022-11-05T20:47:10.433Z,67.89
2022-11-05T20:49:39.270Z,68.94
2022-11-05T20:52:08.093Z,69.75
2022-11-05T20:54:36.942Z,68.51
2022-11-05T20:57:05.774Z,69.41
2022-11-05T20:59:34.613Z,69.28
2022-11-05T21:02:05.286Z,69.22
2022-11-05T21:04:34.258Z,77.04
2022-11-05T21:07:03.857Z,85.85
2022-11-05T21:09:32.997Z,81.95
2022-11-05T21:12:13.955Z,77.47
2022-11-05T21:14:44.523Z,76.40
2022-11-05T21:17:14.831Z,76.29
2022-11-05T21:19:43.844Z,79.86
2022-11-05T21:22:15.455Z,70.34
2022-11-05T21:24:44.715Z,69.05
2022-11-05T21:27:13.616Z,69.08
2022-11-05T21:29:42.457Z,68.45
2022-11-05T21:32:11.981Z,68.47
2022-11-05T21:34:42.409Z,67.48
2022-11-05T21:37:11.265Z,68.31
2022-11-05T21:39:40.168Z,68.08
2022-11-05T21:42:09.001Z,67.36
2022-11-05T21:44:37.840Z,67.24
2022-11-05T21:47:06.790Z,66.37
2022-11-05T21:49:36.360Z,66.41
2022-11-05T21:52:24.221Z,65.49
2022-11-05T21:55:10.254Z,65.93
2022-11-05T21:57:56.241Z,65.48
2022-11-05T22:00:25.426Z,66.19
2022-11-05T22:02:54.429Z,65.78
2022-11-05T22:05:23.372Z,65.34
2022-11-05T22:07:53.674Z,64.50
2022-11-05T22:10:22.772Z,64.56
2022-11-05T22:12:51.605Z,65.08
2022-11-05T22:15:20.603Z,65.81
2022-11-05T22:17:51.502Z,65.43
2022-11-05T22:20:20.349Z,66.97
2022-11-05T22:22:49.201Z,65.39
2022-11-05T22:25:19.759Z,65.40
2022-11-05T22:27:48.662Z,65.83
2022-11-05T22:30:17.726Z,65.66
2022-11-05T22:32:46.668Z,66.13
2022-11-05T22:35:15.467Z,65.91
2022-11-05T22:37:44.292Z,65.48
2022-11-05T22:40:13.326Z,68.00
2022-11-05T22:42:43.659Z,67.69
2022-11-05T22:45:12.606Z,67.48
2022-11-05T22:47:43.076Z,67.97
2022-11-05T22:50:11.923Z,66.93
2022-11-05T22:52:40.845Z,67.31
2022-11-05T22:55:10.552Z,67.78
2022-11-05T22:57:39.397Z,69.61
2022-11-05T23:00:18.336Z,67.68
2022-11-05T23:02:47.299Z,67.69
2022-11-05T23:05:16.934Z,67.34
2022-11-05T23:08:02.882Z,67.18
2022-11-05T23:10:49.418Z,66.20
2022-11-05T23:13:18.238Z,65.58
2022-11-05T23:16:08.354Z,64.35
2022-11-05T23:18:54.783Z,63.49
2022-11-05T23:21:41.121Z,63.30
2022-11-05T23:24:10.207Z,63.35
2022-11-05T23:26:52.395Z,63.21
2022-11-05T23:29:23.389Z,62.41
2022-11-05T23:32:11.452Z,62.14
2022-11-05T23:34:40.388Z,62.42
2022-11-05T23:37:26.889Z,63.62
2022-11-05T23:39:55.772Z,63.61
2022-11-05T23:42:42.308Z,63.65
2022-11-05T23:45:29.380Z,63.56
2022-11-05T23:48:17.839Z,63.70
2022-11-05T23:50:53.342Z,62.97
2022-11-05T23:53:22.276Z,62.51
2022-11-05T23:55:51.774Z,62.47
2022-11-05T23:58:20.923Z,62.99
